Time;durP1;ratioP1;P1;durP2;ratioP2;P2;SDS_P1;SDS_P2;PMS_P1;PMS_P2;Temp;Humidity;BMP_temperature;BMP_pressure;BME280_temperature;BME280_humidity;BME280_pressure;Samples;Min_cycle;Max_cycle;Signal;HPM_P1;HPM_P2
2023/08/25 00:01:28;;;;;;;6.07;2.17;;;;;;;24.42;77.65;95606.28;6276017;22;20234;-83
2023/08/25 00:03:54;;;;;;;5.57;2.63;;;;;;;24.47;77.49;95583.63;6277772;22;20172;-83
2023/08/25 00:06:21;;;;;;;6.25;2.60;;;;;;;24.35;78.24;95599.69;6276750;22;20172;-83
2023/08/25 00:08:48;;;;;;;4.65;2.20;;;;;;;24.38;77.69;95617.59;6278523;22;20196;-83
2023/08/25 00:11:16;;;;;;;6.30;2.20;;;;;;;24.47;77.50;95608.09;6277832;22;20635;-83
2023/08/25 00:13:42;;;;;;;4.68;2.13;;;;;;;24.44;77.21;95596.25;6278015;22;20172;-82
2023/08/25 00:16:09;;;;;;;3.70;2.10;;;;;;;24.51;76.60;95582.03;6278209;22;20215;-83
2023/08/25 00:18:36;;;;;;;4.03;2.20;;;;;;;24.53;76.00;95566.78;6277541;22;20713;-83
2023/08/25 00:21:02;;;;;;;5.47;2.63;;;;;;;24.45;76.51;95575.97;6279051;22;20544;-83
2023/08/25 00:23:29;;;;;;;6.88;2.50;;;;;;;24.41;76.06;95575.75;6278482;22;20200;-83
2023/08/25 00:25:55;;;;;;;4.38;2.65;;;;;;;24.39;77.26;95596.28;6277255;22;20490;-83
2023/08/25 00:28:23;;;;;;;3.08;2.28;;;;;;;24.38;76.97;95592.06;6277731;22;20279;-83
2023/08/25 00:30:50;;;;;;;4.55;2.13;;;;;;;24.48;75.69;95579.94;6278771;22;20529;-83
2023/08/25 00:33:17;;;;;;;6.40;2.58;;;;;;;24.52;75.40;95579.16;6277522;22;20678;-83
2023/08/25 00:35:43;;;;;;;6.20;2.47;;;;;;;24.50;75.18;95570.72;6277125;22;20726;-83
2023/08/25 00:38:10;;;;;;;5.03;2.40;;;;;;;24.66;74.13;95558.34;6278278;22;20228;-83
2023/08/25 00:40:36;;;;;;;5.90;2.53;;;;;;;24.74;73.49;95542.00;6276828;22;20177;-83
2023/08/25 00:43:04;;;;;;;6.68;2.40;;;;;;;24.83;73.70;95547.50;6276363;22;20183;-83
2023/08/25 00:45:36;;;;;;;3.42;2.20;;;;;;;24.85;73.48;95540.91;6277759;22;20199;-82
2023/08/25 00:48:07;;;;;;;4.28;1.92;;;;;;;24.98;73.41;95531.72;6278457;22;20196;-83
2023/08/25 00:50:35;;;;;;;6.53;2.40;;;;;;;24.96;72.70;95525.91;6277258;22;20176;-83
2023/08/25 00:53:01;;;;;;;5.35;2.70;;;;;;;24.98;72.70;95508.78;6277954;22;20172;-83
2023/08/25 00:55:28;;;;;;;5.28;2.35;;;;;;;24.96;71.66;95500.38;6277012;22;20175;-83
2023/08/25 00:57:55;;;;;;;3.85;2.30;;;;;;;24.93;71.55;95474.53;6276359;22;20203;-83
2023/08/25 01:00:25;;;;;;;5.00;2.10;;;;;;;24.91;70.79;95458.19;6277768;22;21019;-83
2023/08/25 01:02:54;;;;;;;5.20;2.30;;;;;;;24.77;70.50;95444.81;6277153;22;20199;-83
2023/08/25 01:05:20;;;;;;;4.35;2.20;;;;;;;24.77;70.83;95420.34;6275854;22;20635;-83
2023/08/25 01:07:47;;;;;;;3.00;2.03;;;;;;;24.77;70.80;95423.75;6276431;22;20169;-83
2023/08/25 01:10:15;;;;;;;4.32;2.30;;;;;;;24.78;70.15;95412.16;6278137;22;20176;-83
2023/08/25 01:12:53;;;;;;;5.78;2.30;;;;;;;24.83;69.89;95400.00;6277011;22;20241;-83
2023/08/25 01:15:26;;;;;;;3.97;2.00;;;;;;;24.89;69.16;95394.44;6277568;22;20199;-83
2023/08/25 01:18:03;;;;;;;3.20;2.40;;;;;;;25.03;68.98;95378.88;6276820;22;20180;-83
2023/08/25 01:20:30;;;;;;;5.18;2.40;;;;;;;25.00;68.41;95347.81;6277841;22;20164;-83
2023/08/25 01:23:10;;;;;;;4.70;2.08;;;;;;;25.05;68.17;95347.75;6277369;22;20180;-83
2023/08/25 01:25:38;;;;;;;3.97;2.05;;;;;;;25.10;67.32;95348.53;6277753;22;20156;-83
2023/08/25 01:28:06;;;;;;;5.15;2.28;;;;;;;25.18;66.89;95335.84;6278119;22;20192;-83
2023/08/25 01:30:34;;;;;;;4.30;2.30;;;;;;;25.16;66.87;95336.13;6277509;22;20172;-83
2023/08/25 01:33:02;;;;;;;4.50;2.42;;;;;;;25.17;66.26;95307.91;6277129;22;20233;-83
2023/08/25 01:35:45;;;;;;;4.40;2.28;;;;;;;25.13;66.06;95303.19;6277175;22;20176;-83
2023/08/25 01:38:17;;;;;;;4.25;1.95;;;;;;;25.04;64.96;95281.13;6275875;22;20196;-83
2023/08/25 01:40:54;;;;;;;5.13;1.90;;;;;;;25.11;64.89;95263.16;6275793;22;20156;-83
2023/08/25 01:43:22;;;;;;;5.70;2.00;;;;;;;25.14;64.35;95243.38;6276913;22;20187;-83
2023/08/25 01:45:49;;;;;;;2.97;1.92;;;;;;;25.18;64.26;95244.41;6277398;22;20707;-83
2023/08/25 01:48:17;;;;;;;2.95;1.83;;;;;;;25.15;63.89;95212.53;6277162;22;20188;-83
2023/08/25 01:50:44;;;;;;;3.40;1.70;;;;;;;25.13;63.54;95200.44;6278209;22;20183;-83
2023/08/25 01:53:11;;;;;;;4.18;1.95;;;;;;;25.23;63.70;95202.16;6275530;22;20510;-83
2023/08/25 01:55:37;;;;;;;6.30;2.38;;;;;;;25.21;63.70;95195.63;6271863;22;20183;-83
2023/08/25 01:58:06;;;;;;;3.40;1.98;;;;;;;25.21;62.94;95190.38;6273493;22;20200;-83
2023/08/25 02:00:32;;;;;;;2.60;1.95;;;;;;;25.27;63.13;95183.97;6273571;22;20556;-83
2023/08/25 02:02:59;;;;;;;2.38;1.70;;;;;;;25.20;62.77;95157.94;6272762;22;20171;-83
2023/08/25 02:05:26;;;;;;;3.92;1.88;;;;;;;25.34;62.81;95158.06;6272834;22;20515;-83
2023/08/25 02:07:52;;;;;;;3.15;1.88;;;;;;;25.36;62.40;95142.75;6272938;22;20172;-83
2023/08/25 02:10:19;;;;;;;5.38;2.10;;;;;;;25.33;62.15;95130.13;6272029;22;20180;-83
2023/08/25 02:12:45;;;;;;;3.33;1.92;;;;;;;25.34;62.42;95126.44;6272933;22;20183;-83
2023/08/25 02:15:13;;;;;;;3.15;1.70;;;;;;;25.39;62.01;95131.66;6273441;22;20702;-83
2023/08/25 02:17:40;;;;;;;3.97;2.00;;;;;;;25.51;61.92;95113.59;6275041;22;20200;-83
2023/08/25 02:20:07;;;;;;;5.22;2.00;;;;;;;25.57;61.43;95101.94;6275589;22;20176;-83
2023/08/25 02:22:34;;;;;;;3.90;1.75;;;;;;;25.54;61.61;95118.31;6274640;22;20172;-83
2023/08/25 02:25:00;;;;;;;6.05;1.95;;;;;;;25.53;60.93;95105.41;6272635;22;20183;-83
2023/08/25 02:27:26;;;;;;;5.25;2.03;;;;;;;25.59;61.01;95093.75;6272944;22;20340;-83
2023/08/25 02:29:53;;;;;;;4.95;2.00;;;;;;;25.66;60.35;95086.28;6272859;22;20192;-83
2023/08/25 02:32:21;;;;;;;2.50;1.70;;;;;;;25.62;59.55;95058.88;6273402;22;20184;-83
2023/08/25 02:34:47;;;;;;;4.85;1.67;;;;;;;25.62;59.83;95059.69;6273646;22;20515;-83
2023/08/25 02:37:14;;;;;;;3.53;1.83;;;;;;;25.61;59.96;95041.47;6273202;22;20192;-83
2023/08/25 02:39:40;;;;;;;2.92;1.58;;;;;;;25.60;60.29;95048.59;6272842;22;20199;-83
2023/08/25 02:42:07;;;;;;;3.88;1.75;;;;;;;25.63;59.63;95032.25;6271845;22;20183;-83
2023/08/25 02:44:33;;;;;;;3.08;1.65;;;;;;;25.65;59.80;95016.16;6272200;22;20180;-83
2023/08/25 02:47:00;;;;;;;3.03;1.48;;;;;;;25.69;59.30;95017.16;6272650;22;20172;-83
2023/08/25 02:49:27;;;;;;;3.88;1.70;;;;;;;25.65;58.94;94998.47;6272597;22;20196;-83
2023/08/25 02:51:56;;;;;;;2.83;1.65;;;;;;;25.65;59.05;94998.47;6272913;22;20176;-83
2023/08/25 02:54:22;;;;;;;3.35;1.65;;;;;;;25.61;58.97;94992.16;6272479;22;20180;-82
2023/08/25 02:56:49;;;;;;;2.20;1.50;;;;;;;25.68;59.25;94997.13;6273068;22;20532;-83
2023/08/25 02:59:15;;;;;;;2.78;1.40;;;;;;;25.68;58.80;95000.53;6272472;22;20199;-83
2023/08/25 03:01:42;;;;;;;1.70;1.60;;;;;;;25.67;58.76;94987.63;6272053;22;20176;-83
2023/08/25 03:04:21;;;;;;;2.42;1.55;;;;;;;25.66;59.04;94984.22;6275782;22;20184;-83
2023/08/25 03:06:49;;;;;;;2.88;1.50;;;;;;;25.60;58.73;94960.81;6275635;22;20178;-83
2023/08/25 03:09:16;;;;;;;1.23;1.13;;;;;;;25.55;58.67;94963.53;6274303;22;20207;-83
2023/08/25 03:11:42;;;;;;;1.88;1.60;;;;;;;25.45;58.76;94956.53;6275437;22;20531;-83
2023/08/25 03:14:08;;;;;;;1.95;1.30;;;;;;;25.42;59.13;94957.88;6274407;22;20184;-83
2023/08/25 03:16:35;;;;;;;2.75;1.40;;;;;;;25.40;58.77;94954.00;6273242;22;20206;-83
2023/08/25 03:19:01;;;;;;;1.58;1.48;;;;;;;25.35;59.22;94957.47;6277060;22;20192;-83
2023/08/25 03:21:28;;;;;;;2.67;1.30;;;;;;;25.23;59.20;94953.69;6277523;22;20183;-83
2023/08/25 03:23:55;;;;;;;2.38;1.42;;;;;;;25.22;59.05;94966.06;6274873;22;20179;-83
2023/08/25 03:26:22;;;;;;;2.47;1.50;;;;;;;25.24;59.47;94968.41;6274418;22;20182;-83
2023/08/25 03:28:48;;;;;;;1.95;1.40;;;;;;;25.32;59.13;94965.94;6274541;22;20192;-83
2023/08/25 03:31:15;;;;;;;1.85;1.58;;;;;;;25.25;58.96;94968.13;6273405;22;20176;-83
2023/08/25 03:33:41;;;;;;;1.40;1.30;;;;;;;25.25;59.35;94985.81;6273845;22;20183;-83
2023/08/25 03:36:07;;;;;;;2.95;1.55;;;;;;;25.29;59.17;94989.44;6273970;22;20172;-83
2023/08/25 03:38:34;;;;;;;2.15;1.58;;;;;;;25.31;59.13;94985.47;6274136;22;20200;-83
2023/08/25 03:41:01;;;;;;;1.48;1.33;;;;;;;25.33;59.13;94979.91;6274842;22;20156;-83
2023/08/25 03:43:28;;;;;;;2.42;1.40;;;;;;;25.35;58.90;94989.09;6274002;22;20184;-83
2023/08/25 03:45:54;;;;;;;1.92;1.50;;;;;;;25.32;58.63;95004.69;6273773;22;20207;-83
2023/08/25 03:48:21;;;;;;;3.15;1.90;;;;;;;25.29;59.41;95008.69;6273244;22;20527;-83
2023/08/25 03:50:47;;;;;;;2.53;1.60;;;;;;;25.34;59.24;95011.25;6274356;22;20195;-83
2023/08/25 03:53:14;;;;;;;3.22;1.55;;;;;;;25.38;59.26;95003.56;6272838;22;20183;-83
2023/08/25 03:55:40;;;;;;;1.90;1.40;;;;;;;25.47;59.01;94986.03;6273663;22;20237;-83
2023/08/25 03:58:10;;;;;;;4.78;1.58;;;;;;;25.50;58.84;94992.59;6273443;22;20691;-83
2023/08/25 04:00:36;;;;;;;2.45;1.40;;;;;;;25.51;59.35;94992.31;6273366;22;20481;-83
2023/08/25 04:03:06;;;;;;;2.22;1.50;;;;;;;25.46;58.83;94987.88;6273016;22;20179;-83
2023/08/25 04:05:32;;;;;;;3.08;1.52;;;;;;;25.50;58.51;94998.66;6272695;22;20267;-83
2023/08/25 04:07:58;;;;;;;2.90;1.77;;;;;;;25.56;58.25;94996.75;6272925;22;20192;-83
2023/08/25 04:10:26;;;;;;;2.70;1.40;;;;;;;25.61;58.62;94994.78;6274835;22;20551;-83
2023/08/25 04:12:52;;;;;;;2.95;1.42;;;;;;;25.62;58.82;95004.31;6274923;22;20206;-83
2023/08/25 04:15:21;;;;;;;3.10;1.70;;;;;;;25.62;58.65;94985.03;6274543;22;20183;-83
2023/08/25 04:17:48;;;;;;;3.85;1.40;;;;;;;25.62;58.44;94971.84;6274735;22;20203;-83
2023/08/25 04:20:14;;;;;;;3.03;1.60;;;;;;;25.60;58.19;94966.88;6276409;22;20176;-83
2023/08/25 04:22:41;;;;;;;2.45;1.45;;;;;;;25.55;57.84;94956.41;6277675;22;20176;-82
2023/08/25 04:25:09;;;;;;;1.92;1.42;;;;;;;25.59;56.99;94917.88;6274193;22;20176;-83
2023/08/25 04:27:36;;;;;;;2.63;1.60;;;;;;;25.55;56.84;94879.97;6274696;22;20179;-82
2023/08/25 04:30:02;;;;;;;2.25;1.40;;;;;;;25.61;56.50;94849.78;6274420;22;20192;-82
2023/08/25 04:32:30;;;;;;;2.13;1.52;;;;;;;25.64;55.21;94779.91;6274297;22;20616;-83
2023/08/25 04:34:56;;;;;;;3.92;1.77;;;;;;;25.78;56.44;94826.34;6275841;22;20180;-82
2023/08/25 04:37:23;;;;;;;2.13;1.35;;;;;;;25.91;56.36;94805.53;6275486;22;20689;-82
2023/08/25 04:39:49;;;;;;;1.60;1.40;;;;;;;25.94;53.94;94700.22;6276218;22;20200;-82
2023/08/25 04:42:15;;;;;;;1.77;1.52;;;;;;;25.81;53.96;94679.91;6276073;22;20508;-82
2023/08/25 04:44:42;;;;;;;2.47;1.50;;;;;;;25.88;54.60;94693.47;6275622;22;20187;-81
2023/08/25 04:47:08;;;;;;;2.97;1.42;;;;;;;25.97;54.29;94699.66;6276243;22;20175;-82
2023/08/25 04:49:36;;;;;;;2.58;1.55;;;;;;;26.05;53.94;94696.28;6276707;22;20196;-82
2023/08/25 04:52:03;;;;;;;3.85;1.45;;;;;;;26.07;54.14;94688.88;6275495;22;20176;-83
2023/08/25 04:54:29;;;;;;;3.45;1.50;;;;;;;26.05;53.64;94669.91;6277039;22;20237;-82
2023/08/25 04:56:56;;;;;;;3.85;1.80;;;;;;;26.07;53.56;94680.16;6273711;22;20180;-82
2023/08/25 04:59:22;;;;;;;1.60;1.50;;;;;;;26.10;53.73;94664.53;6275652;22;20199;-83
2023/08/25 05:01:49;;;;;;;1.52;1.38;;;;;;;26.10;53.44;94651.34;6275125;22;20172;-83
2023/08/25 05:04:15;;;;;;;1.60;1.50;;;;;;;26.09;52.56;94620.75;6275550;22;20176;-83
2023/08/25 05:06:43;;;;;;;2.85;1.52;;;;;;;26.05;52.78;94592.63;6275938;22;20182;-83
2023/08/25 05:09:09;;;;;;;2.70;1.60;;;;;;;26.09;52.90;94610.19;6275259;22;20188;-82
2023/08/25 05:11:37;;;;;;;3.15;1.90;;;;;;;26.08;52.57;94590.16;6276284;22;20191;-83
2023/08/25 05:14:04;;;;;;;2.75;1.55;;;;;;;26.13;52.80;94599.84;6276210;22;20627;-83
2023/08/25 05:16:30;;;;;;;2.13;1.50;;;;;;;26.17;52.39;94591.00;6276885;22;20172;-83
2023/08/25 05:18:56;;;;;;;2.70;1.80;;;;;;;26.20;52.41;94596.78;6280198;22;20200;-83
2023/08/25 05:21:23;;;;;;;2.67;1.88;;;;;;;26.18;52.60;94610.25;6279873;22;20176;-82
2023/08/25 05:24:17;;;;;;;6.18;1.77;;;;;;;26.22;53.70;94647.41;6274919;22;20180;-83
2023/08/25 05:26:44;;;;;;;2.40;1.40;;;;;;;26.29;53.91;94656.50;6277393;22;20573;-83
2023/08/25 05:29:10;;;;;;;4.28;1.90;;;;;;;26.26;53.36;94640.44;6276355;22;20203;-83
2023/08/25 05:31:37;;;;;;;2.88;1.75;;;;;;;26.24;53.17;94642.59;6276436;22;20177;-82
2023/08/25 05:34:03;;;;;;;2.80;1.95;;;;;;;26.20;52.94;94633.72;6276373;22;20187;-82
2023/08/25 05:36:30;;;;;;;3.30;1.58;;;;;;;26.25;53.04;94650.22;6276042;22;20257;-82
2023/08/25 05:38:57;;;;;;;2.97;2.00;;;;;;;26.25;53.73;94644.94;6276007;22;20200;-83
2023/08/25 05:41:24;;;;;;;2.67;1.88;;;;;;;26.27;52.99;94631.47;6276867;22;20177;-82
2023/08/25 05:43:50;;;;;;;2.45;1.70;;;;;;;26.29;52.81;94608.19;6276848;22;20186;-83
2023/08/25 05:46:17;;;;;;;3.47;1.98;;;;;;;26.29;52.62;94595.00;6277740;22;20176;-83
2023/08/25 05:48:44;;;;;;;2.22;1.73;;;;;;;26.31;52.72;94583.09;6276194;22;20595;-83
2023/08/25 05:51:10;;;;;;;2.75;1.65;;;;;;;26.35;52.76;94573.50;6279583;22;20180;-82
2023/08/25 05:53:37;;;;;;;5.28;1.95;;;;;;;26.39;52.60;94552.53;6278989;22;20183;-82
2023/08/25 05:56:05;;;;;;;2.80;1.73;;;;;;;26.40;52.42;94549.59;6280029;22;20172;-82
2023/08/25 05:58:31;;;;;;;3.20;1.65;;;;;;;26.42;52.59;94525.53;6283180;22;20227;-83
2023/08/25 06:00:58;;;;;;;4.05;1.90;;;;;;;26.52;53.09;94578.09;6276044;22;20184;-83
2023/08/25 06:03:25;;;;;;;1.80;1.70;;;;;;;26.48;51.88;94543.59;6276106;22;20222;-81
2023/08/25 06:05:53;;;;;;;2.65;1.70;;;;;;;26.45;52.22;94535.50;6274703;22;20176;-82
2023/08/25 06:08:19;;;;;;;2.13;1.42;;;;;;;26.45;52.33;94540.78;6275975;22;20192;-81
2023/08/25 06:10:46;;;;;;;1.80;1.50;;;;;;;26.45;52.12;94549.47;6276345;22;20172;-82
2023/08/25 06:13:14;;;;;;;1.90;1.40;;;;;;;26.38;52.86;94567.59;6275692;22;20215;-81
2023/08/25 06:15:40;;;;;;;3.13;1.67;;;;;;;26.40;53.09;94578.63;6276104;22;20176;-82
2023/08/25 06:18:07;;;;;;;1.58;1.42;;;;;;;26.53;53.31;94587.59;6276014;22;20196;-81
2023/08/25 06:20:33;;;;;;;2.13;1.40;;;;;;;26.60;53.09;94595.06;6273953;22;20180;-81
2023/08/25 06:23:00;;;;;;;3.55;1.40;;;;;;;26.64;52.63;94578.31;6274713;22;20176;-81
2023/08/25 06:25:26;;;;;;;1.92;1.45;;;;;;;26.71;53.05;94554.16;6275087;22;20180;-82
2023/08/25 06:27:53;;;;;;;2.53;1.60;;;;;;;26.64;52.51;94509.66;6274032;22;20507;-81
2023/08/25 06:30:20;;;;;;;2.42;1.50;;;;;;;26.64;52.10;94496.47;6274680;22;20639;-82
2023/08/25 06:32:47;;;;;;;2.70;1.65;;;;;;;26.66;51.40;94464.47;6274978;22;20622;-83
2023/08/25 06:35:13;;;;;;;1.50;1.40;;;;;;;26.65;51.18;94463.69;6275174;22;20183;-82
2023/08/25 06:37:42;;;;;;;1.95;1.63;;;;;;;26.66;51.18;94432.78;6276315;22;20172;-82
2023/08/25 06:40:09;;;;;;;1.70;1.60;;;;;;;26.69;51.32;94429.53;6277351;22;20176;-83
2023/08/25 06:42:39;;;;;;;2.53;1.60;;;;;;;26.67;50.90;94421.16;6280173;22;20176;-82
2023/08/25 06:45:07;;;;;;;2.47;1.67;;;;;;;26.75;50.99;94437.00;6280141;22;20163;-83
2023/08/25 06:47:35;;;;;;;2.25;1.67;;;;;;;26.87;51.31;94460.22;6279665;22;20172;-81
2023/08/25 06:50:02;;;;;;;2.22;1.75;;;;;;;26.91;51.04;94432.09;6279020;22;20196;-81
2023/08/25 06:52:28;;;;;;;1.50;1.40;;;;;;;26.95;50.70;94432.28;6278683;22;20258;-83
2023/08/25 06:54:55;;;;;;;1.80;1.50;;;;;;;26.96;50.74;94421.41;6277707;22;20172;-83
2023/08/25 06:57:22;;;;;;;1.65;1.55;;;;;;;26.92;50.41;94414.38;6278035;22;20184;-83
2023/08/25 06:59:48;;;;;;;1.70;1.60;;;;;;;26.84;50.21;94376.28;6278704;22;20202;-82
2023/08/25 07:02:15;;;;;;;2.65;1.55;;;;;;;26.88;50.22;94385.16;6277592;22;20178;-83
2023/08/25 07:04:42;;;;;;;1.95;1.42;;;;;;;26.98;49.60;94362.97;6278503;22;20178;-82
2023/08/25 07:07:09;;;;;;;2.80;1.50;;;;;;;27.18;50.18;94392.22;6279080;22;20178;-82
2023/08/25 07:09:36;;;;;;;1.50;1.40;;;;;;;27.42;48.91;94346.03;6278376;22;20238;-83
2023/08/25 07:12:04;;;;;;;1.40;1.30;;;;;;;27.72;48.68;94334.50;6278602;22;20210;-81
2023/08/25 07:14:31;;;;;;;1.55;1.45;;;;;;;27.75;48.41;94320.66;6278526;22;20179;-83
2023/08/25 07:16:58;;;;;;;3.00;1.70;;;;;;;27.92;48.02;94322.47;6278509;22;20750;-82
2023/08/25 07:19:24;;;;;;;3.22;1.45;;;;;;;28.08;47.68;94305.00;6280206;22;20223;-82
2023/08/25 07:21:52;;;;;;;1.67;1.58;;;;;;;28.19;47.69;94287.69;6278979;22;20183;-83
2023/08/25 07:24:18;;;;;;;2.50;1.85;;;;;;;28.37;47.68;94292.88;6279624;22;20207;-82
2023/08/25 07:26:45;;;;;;;2.75;2.55;;;;;;;28.42;47.06;94253.00;6278006;22;20500;-82
2023/08/25 07:29:11;;;;;;;3.58;1.80;;;;;;;28.71;46.83;94249.50;6278409;22;20192;-82
2023/08/25 07:31:38;;;;;;;1.90;1.70;;;;;;;28.95;46.02;94214.44;6280411;22;20490;-82
2023/08/25 07:34:04;;;;;;;1.83;1.50;;;;;;;29.11;45.35;94187.00;6279630;22;20176;-83
2023/08/25 07:36:30;;;;;;;1.98;1.50;;;;;;;29.18;44.98;94186.47;6278281;22;20183;-83
2023/08/25 07:38:58;;;;;;;1.60;1.50;;;;;;;29.28;44.93;94199.31;6277852;22;20214;-83
2023/08/25 07:41:25;;;;;;;1.95;1.70;;;;;;;29.37;44.49;94176.13;6278022;22;20488;-82
2023/08/25 07:43:51;;;;;;;3.10;1.77;;;;;;;29.29;44.31;94161.06;6279091;22;20188;-82
2023/08/25 07:46:18;;;;;;;1.65;1.50;;;;;;;29.41;44.33;94202.81;6280186;22;20179;-82
2023/08/25 07:48:45;;;;;;;3.05;1.70;;;;;;;29.33;44.35;94182.41;6278224;22;20554;-82
2023/08/25 07:51:12;;;;;;;2.60;1.48;;;;;;;29.13;44.59;94198.06;6277421;22;20631;-82
2023/08/25 07:53:38;;;;;;;3.53;1.60;;;;;;;29.03;44.94;94218.91;6278578;22;20222;-83
2023/08/25 07:56:06;;;;;;;1.95;1.67;;;;;;;28.88;44.59;94222.91;6278048;22;20652;-82
2023/08/25 07:58:33;;;;;;;3.33;2.35;;;;;;;28.79;45.19;94256.63;6278295;22;20208;-83
2023/08/25 08:01:02;;;;;;;1.80;1.70;;;;;;;28.75;45.75;94277.69;6277275;22;20179;-83
2023/08/25 08:03:29;;;;;;;4.82;3.00;;;;;;;28.73;45.91;94287.06;6277856;22;20267;-82
2023/08/25 08:05:55;;;;;;;2.30;2.10;;;;;;;28.58;45.24;94251.31;6276942;22;20180;-83
2023/08/25 08:08:23;;;;;;;3.22;1.80;;;;;;;28.47;45.83;94274.78;6277470;22;20203;-84
2023/08/25 08:10:50;;;;;;;2.38;1.75;;;;;;;28.43;46.87;94326.03;6272032;22;20180;-81
2023/08/25 08:13:18;;;;;;;1.90;1.70;;;;;;;28.41;46.38;94322.94;6274433;22;20172;-83
2023/08/25 08:15:44;;;;;;;2.50;2.03;;;;;;;28.28;46.77;94319.44;6275715;22;20587;-83
2023/08/25 08:18:11;;;;;;;1.88;1.67;;;;;;;28.31;47.50;94339.94;6275124;22;20207;-83
2023/08/25 08:20:37;;;;;;;2.08;1.90;;;;;;;28.16;47.05;94298.88;6275149;22;20176;-83
2023/08/25 08:23:04;;;;;;;2.97;2.20;;;;;;;28.06;47.16;94291.31;6275699;22;20183;-83
2023/08/25 08:25:30;;;;;;;4.30;3.85;;;;;;;27.98;46.98;94289.47;6276456;22;20176;-83
2023/08/25 08:27:57;;;;;;;2.72;1.98;;;;;;;27.94;46.90;94256.00;6276511;22;20619;-84
2023/08/25 08:30:25;;;;;;;2.97;2.08;;;;;;;27.94;46.51;94259.44;6277237;22;20183;-83
2023/08/25 08:32:51;;;;;;;3.38;2.50;;;;;;;28.02;47.93;94326.66;6278164;22;20514;-82
2023/08/25 08:35:18;;;;;;;3.53;2.38;;;;;;;28.04;48.01;94356.22;6278967;22;20188;-82
2023/08/25 08:37:44;;;;;;;3.95;3.65;;;;;;;28.02;48.82;94398.88;6276676;22;20176;-82
2023/08/25 08:40:12;;;;;;;3.20;2.70;;;;;;;28.07;49.59;94450.88;6277671;22;20195;-82
2023/08/25 08:42:39;;;;;;;5.10;2.22;;;;;;;28.04;49.10;94449.63;6276177;22;20176;-83
2023/08/25 08:45:08;;;;;;;2.85;2.30;;;;;;;28.02;49.22;94541.00;6279433;22;20160;-83
2023/08/25 08:47:37;;;;;;;4.30;2.50;;;;;;;27.79;49.46;94594.06;6277344;22;20247;-82
2023/08/25 08:50:06;;;;;;;2.97;2.40;;;;;;;27.58;50.81;94614.25;6278379;22;20519;-83
2023/08/25 08:52:33;;;;;;;3.03;1.90;;;;;;;27.55;51.50;94717.19;6276260;22;20176;-82
2023/08/25 08:55:00;;;;;;;6.47;2.42;;;;;;;27.38;52.98;94787.41;6277566;22;20548;-82
2023/08/25 08:57:27;;;;;;;2.75;2.42;;;;;;;27.35;53.26;94888.47;6277176;22;20180;-82
2023/08/25 08:59:54;;;;;;;4.50;2.10;;;;;;;27.32;54.91;94951.75;6276385;22;20204;-82
2023/08/25 09:02:21;;;;;;;2.55;2.08;;;;;;;27.29;56.00;95023.72;6265247;22;20180;-84
2023/08/25 09:04:51;;;;;;;3.92;2.70;;;;;;;27.24;57.81;95113.72;6268767;22;20180;-82
2023/08/25 09:07:19;;;;;;;2.70;2.50;;;;;;;27.08;58.69;95121.91;6272357;22;20168;-84
2023/08/25 09:09:46;;;;;;;3.72;2.17;;;;;;;26.98;59.53;95166.22;6274776;22;20192;-83
2023/08/25 09:12:15;;;;;;;3.65;2.47;;;;;;;26.97;59.79;95178.66;6275231;22;20182;-83
2023/08/25 09:14:42;;;;;;;3.67;2.40;;;;;;;26.97;60.20;95210.34;6276270;22;20172;-83
2023/08/25 09:17:13;;;;;;;3.53;2.33;;;;;;;26.88;59.82;95196.22;6278019;22;20195;-82
2023/08/25 09:19:40;;;;;;;5.55;5.13;;;;;;;27.00;59.30;95178.06;6277670;22;20204;-83
2023/08/25 09:22:13;;;;;;;4.95;4.55;;;;;;;27.01;59.17;95163.00;6276329;22;20177;-83
2023/08/25 09:24:43;;;;;;;4.10;3.45;;;;;;;27.05;58.91;95171.94;6278050;22;20238;-82
2023/08/25 09:27:21;;;;;;;2.92;2.70;;;;;;;27.04;58.88;95165.84;6277136;22;20184;-82
2023/08/25 09:29:48;;;;;;;3.75;2.70;;;;;;;26.98;59.07;95163.59;6276379;22;20196;-82
2023/08/25 09:32:15;;;;;;;6.13;3.28;;;;;;;27.06;59.69;95176.13;6277433;22;20627;-83
2023/08/25 09:34:42;;;;;;;4.18;2.85;;;;;;;27.26;58.47;95140.63;6281948;22;20180;-82
2023/08/25 09:37:08;;;;;;;4.43;2.58;;;;;;;27.76;58.05;95125.66;6280302;22;20176;-82
2023/08/25 09:39:43;;;;;;;2.90;2.45;;;;;;;28.42;56.60;95079.25;6279995;22;20204;-82
2023/08/25 09:42:10;;;;;;;4.85;2.90;;;;;;;28.81;54.58;95007.03;6277727;22;20190;-83
2023/08/25 09:44:37;;;;;;;3.53;2.88;;;;;;;29.05;53.53;94959.72;6279418;22;20180;-83
2023/08/25 09:47:06;;;;;;;4.00;3.15;;;;;;;29.16;52.98;94945.06;6277472;22;20176;-83
2023/08/25 09:49:38;;;;;;;3.25;2.50;;;;;;;29.35;53.04;94914.84;6279152;22;20192;-82
2023/08/25 09:52:06;;;;;;;4.38;2.60;;;;;;;29.46;52.42;94894.88;6278710;22;20196;-83
2023/08/25 09:54:33;;;;;;;3.80;2.67;;;;;;;29.41;51.46;94866.66;6275308;22;20688;-83
2023/08/25 09:57:02;;;;;;;2.70;2.50;;;;;;;29.52;51.85;94897.06;6274945;22;20184;-83
2023/08/25 09:59:28;;;;;;;4.70;3.70;;;;;;;29.46;52.53;94895.66;6276549;22;20199;-83
2023/08/25 10:01:57;;;;;;;5.47;4.10;;;;;;;29.54;52.02;94889.59;6278052;22;20180;-83
2023/08/25 10:04:24;;;;;;;3.90;2.90;;;;;;;29.57;51.99;94898.00;6276861;22;20176;-86
2023/08/25 10:06:51;;;;;;;3.67;2.85;;;;;;;29.70;51.64;94873.94;6273395;22;20223;-86
2023/08/25 10:09:19;;;;;;;4.57;2.47;;;;;;;29.93;51.31;94855.19;6274543;22;20195;-85
2023/08/25 10:11:48;;;;;;;3.25;2.90;;;;;;;29.88;50.92;94864.09;6275726;22;20176;-81
2023/08/25 10:14:18;;;;;;;4.45;2.90;;;;;;;29.97;51.28;94858.75;6278346;22;20176;-82
2023/08/25 10:16:49;;;;;;;4.53;2.80;;;;;;;29.88;50.19;94825.03;6278264;22;20180;-83
2023/08/25 10:19:16;;;;;;;4.82;2.60;;;;;;;30.00;50.48;94824.44;6277312;22;20200;-83
2023/08/25 10:21:44;;;;;;;3.35;2.67;;;;;;;30.16;49.94;94827.34;6278532;22;20176;-82
2023/08/25 10:24:12;;;;;;;2.55;2.35;;;;;;;30.04;50.01;94812.06;6278082;22;20180;-82
2023/08/25 10:26:39;;;;;;;2.83;2.50;;;;;;;29.84;50.09;94794.13;6277808;22;20176;-82
2023/08/25 10:29:07;;;;;;;3.55;2.47;;;;;;;29.80;49.83;94825.88;6279478;22;20195;-82
2023/08/25 10:31:35;;;;;;;3.83;2.88;;;;;;;29.87;49.91;94799.59;6280551;22;20186;-82
2023/08/25 10:34:02;;;;;;;3.45;2.60;;;;;;;29.96;49.21;94783.66;6280936;22;20176;-83
2023/08/25 10:36:28;;;;;;;3.10;2.90;;;;;;;30.04;49.86;94788.16;6280179;22;20183;-82
2023/08/25 10:39:12;;;;;;;3.28;2.50;;;;;;;30.22;48.46;94719.81;6279031;22;20265;-82
2023/08/25 10:41:43;;;;;;;2.92;2.10;;;;;;;30.24;47.59;94704.31;6277001;22;20496;-83
2023/08/25 10:44:11;;;;;;;3.08;2.13;;;;;;;30.06;47.46;94695.69;6276642;22;20180;-84
2023/08/25 10:46:39;;;;;;;3.28;2.33;;;;;;;29.98;47.67;94703.72;6275274;22;20682;-83
2023/08/25 10:49:11;;;;;;;2.53;2.05;;;;;;;29.92;47.77;94715.56;6274317;22;20498;-83
2023/08/25 10:51:38;;;;;;;2.88;2.20;;;;;;;29.95;48.17;94691.06;6275056;22;20157;-84
2023/08/25 10:54:05;;;;;;;2.53;2.28;;;;;;;29.99;47.75;94676.84;6273152;22;20180;-84
2023/08/25 10:56:32;;;;;;;2.67;2.40;;;;;;;29.66;47.25;94650.13;6273389;22;20184;-87
2023/08/25 10:59:03;;;;;;;2.80;2.42;;;;;;;29.86;46.82;94651.25;6273522;22;20223;-83
2023/08/25 11:01:53;;;;;;;2.53;2.33;;;;;;;30.29;46.61;94643.06;6277147;22;20163;-84
2023/08/25 11:04:24;;;;;;;2.33;2.05;;;;;;;30.56;46.67;94621.31;6275214;22;20168;-83
2023/08/25 11:06:52;;;;;;;2.60;2.40;;;;;;;30.65;45.29;94541.50;6275052;22;20160;-84
2023/08/25 11:09:33;;;;;;;2.30;2.10;;;;;;;30.69;45.93;94600.88;6276254;22;20227;-84
2023/08/25 11:12:03;;;;;;;3.58;2.50;;;;;;;30.74;45.92;94570.66;6276704;22;20199;-84
2023/08/25 11:14:30;;;;;;;2.70;2.50;;;;;;;30.75;45.32;94541.09;6277240;22;20176;-82
2023/08/25 11:16:57;;;;;;;2.63;2.42;;;;;;;30.74;44.95;94533.44;6276149;22;20191;-84
2023/08/25 11:19:25;;;;;;;3.17;2.10;;;;;;;30.85;44.35;94500.78;6279261;22;20346;-84
2023/08/25 11:21:59;;;;;;;4.13;2.50;;;;;;;30.95;45.17;94544.78;6279021;22;20172;-84
2023/08/25 11:24:27;;;;;;;2.75;2.55;;;;;;;31.04;44.53;94516.19;6279043;22;20522;-84
2023/08/25 11:26:53;;;;;;;3.65;3.20;;;;;;;30.93;44.56;94488.50;6280083;22;20246;-84
2023/08/25 11:29:20;;;;;;;3.22;2.90;;;;;;;30.93;44.63;94520.41;6280371;22;20197;-84
2023/08/25 11:31:46;;;;;;;2.95;2.33;;;;;;;31.09;44.62;94515.97;6283397;22;20183;-84
2023/08/25 11:34:14;;;;;;;3.50;2.25;;;;;;;31.16;44.22;94481.66;6281264;22;20172;-84
2023/08/25 11:36:42;;;;;;;2.40;2.20;;;;;;;31.32;43.44;94459.69;6281737;22;20172;-84